Raymond, Wyoming
Current Conditions -  °F | °C
As of 11:55 PM on Wednesday 22 Oct 2014 (Local Time) from KEMM Reporting Station
Clear Clear  
Wind Chill: 32°   Ceiling: Unl
Heat Index: 36°   Visibility: 10mi
Dew Point: 19°   Wind: 5mph
Humidity: 52%   Direction: 290°WNW
Pressure: 30.25"   Gusts: NA
Location:  42.0387°N, 110.797°W
Report Text: KEMM 230555Z AUTO 29004KT 10SM CLR 02/M07 A3025 RMK AO2
Loading
Personal Weather Stations






























Interactive Weather Map
Tropical Storm Tracking
New forecast layout! Learn more

10-Day Weather Forecast

Advertisements
Track Severe Weather on mobile